createdAt,value
2023-01-29T00:01:33.894Z,32.75
2023-01-29T00:04:00.445Z,29.73
2023-01-29T00:06:27.643Z,31.90
2023-01-29T00:08:54.486Z,26.75
2023-01-29T00:11:21.056Z,29.38
2023-01-29T00:13:47.767Z,29.45
2023-01-29T00:16:14.500Z,33.53
2023-01-29T00:18:41.763Z,34.58
2023-01-29T00:21:16.172Z,28.92
2023-01-29T00:23:43.125Z,33.75
2023-01-29T00:26:10.462Z,34.08
2023-01-29T00:28:37.102Z,33.92
2023-01-29T00:31:10.281Z,32.53
2023-01-29T00:33:36.891Z,39.90
2023-01-29T00:36:08.759Z,35.75
2023-01-29T00:38:35.543Z,33.88
2023-01-29T00:41:25.725Z,34.45
2023-01-29T00:44:10.765Z,36.08
2023-01-29T00:46:37.559Z,30.90
2023-01-29T00:49:04.872Z,30.60
2023-01-29T00:51:31.736Z,36.55
2023-01-29T00:54:02.665Z,35.85
2023-01-29T00:56:30.083Z,34.65
2023-01-29T00:58:57.032Z,32.27
2023-01-29T01:01:42.648Z,34.05
2023-01-29T01:04:10.806Z,34.67
2023-01-29T01:06:38.624Z,35.60
2023-01-29T01:09:24.329Z,38.47
2023-01-29T01:11:51.684Z,31.23
2023-01-29T01:14:21.770Z,33.83
2023-01-29T01:16:48.839Z,32.75
2023-01-29T01:19:15.970Z,36.83
2023-01-29T01:21:45.525Z,37.35
2023-01-29T01:24:13.142Z,32.08
2023-01-29T01:26:40.053Z,35.03
2023-01-29T01:29:06.620Z,32.67
2023-01-29T01:31:33.342Z,34.97
2023-01-29T01:34:00.028Z,34.30
2023-01-29T01:36:26.682Z,34.53
2023-01-29T01:38:54.215Z,36.75
2023-01-29T01:41:22.547Z,35.35
2023-01-29T01:46:28.813Z,29.60
2023-01-29T01:49:16.548Z,33.05
2023-01-29T01:51:48.636Z,31.10
2023-01-29T01:54:25.434Z,31.27
2023-01-29T01:56:56.474Z,34.67
2023-01-29T01:59:23.604Z,31.50
2023-01-29T02:01:54.013Z,34.15
2023-01-29T02:04:41.708Z,32.70
2023-01-29T02:07:30.005Z,32.25
2023-01-29T02:10:11.753Z,31.33
2023-01-29T02:12:38.573Z,32.60
2023-01-29T02:15:05.827Z,29.15
2023-01-29T02:17:32.652Z,30.67
2023-01-29T02:20:27.012Z,28.77
2023-01-29T02:23:04.955Z,30.88
2023-01-29T02:25:50.680Z,28.63
2023-01-29T02:28:40.943Z,30.33
2023-01-29T02:31:26.465Z,33.38
2023-01-29T02:34:12.169Z,31.70
2023-01-29T02:37:07.712Z,30.95
2023-01-29T02:39:35.515Z,33.85
2023-01-29T02:42:15.206Z,33.42
2023-01-29T02:44:45.154Z,36.67
2023-01-29T02:47:22.713Z,31.25
2023-01-29T02:49:55.280Z,28.58
2023-01-29T02:52:29.398Z,30.15
2023-01-29T02:55:04.984Z,30.70
2023-01-29T02:57:40.765Z,31.35
2023-01-29T03:00:12.984Z,31.00
2023-01-29T03:02:48.664Z,32.85
2023-01-29T03:05:18.783Z,34.13
2023-01-29T03:07:52.101Z,31.27
2023-01-29T03:10:23.261Z,35.38
2023-01-29T03:13:08.489Z,34.30
2023-01-29T03:15:42.460Z,38.38
2023-01-29T03:18:12.855Z,38.15
2023-01-29T03:20:49.766Z,34.00
2023-01-29T03:23:27.088Z,33.97
2023-01-29T03:26:15.759Z,35.47
2023-01-29T03:29:02.580Z,40.20
2023-01-29T03:31:48.848Z,35.55
2023-01-29T03:34:24.145Z,35.65
2023-01-29T03:36:56.133Z,37.22
2023-01-29T03:39:25.192Z,35.97
2023-01-29T03:42:22.609Z,34.70
2023-01-29T03:44:52.203Z,33.25
2023-01-29T03:47:20.161Z,38.95
2023-01-29T03:49:59.559Z,39.97
2023-01-29T03:52:34.911Z,42.03
2023-01-29T03:55:33.673Z,40.70
2023-01-29T03:58:15.476Z,38.78
2023-01-29T04:00:45.918Z,42.80
2023-01-29T04:03:23.721Z,38.00
2023-01-29T04:06:09.895Z,39.58
2023-01-29T04:08:46.180Z,41.00
2023-01-29T04:11:15.545Z,40.78
2023-01-29T04:13:42.979Z,40.88
2023-01-29T04:16:15.334Z,42.87
2023-01-29T04:18:45.161Z,39.33
2023-01-29T04:21:11.769Z,46.40
2023-01-29T04:23:38.356Z,39.08
2023-01-29T04:26:46.277Z,41.35
2023-01-29T04:31:51.370Z,41.28
2023-01-29T04:34:28.001Z,46.13
2023-01-29T04:37:14.147Z,44.38
2023-01-29T04:39:49.329Z,43.58
2023-01-29T04:42:23.654Z,38.78
2023-01-29T04:45:03.378Z,45.15
2023-01-29T04:48:00.973Z,40.40
2023-01-29T04:50:58.190Z,41.45
2023-01-29T04:53:36.584Z,44.95
2023-01-29T04:56:16.616Z,44.03
2023-01-29T04:58:51.828Z,41.65
2023-01-29T05:01:19.823Z,43.30
2023-01-29T05:03:51.261Z,39.42
2023-01-29T05:06:18.663Z,45.60
2023-01-29T05:08:45.573Z,46.65
2023-01-29T05:11:14.361Z,45.75
2023-01-29T05:13:42.558Z,45.88
2023-01-29T05:16:14.932Z,44.80
2023-01-29T05:18:41.619Z,50.85
2023-01-29T05:21:09.114Z,47.97
2023-01-29T05:23:35.831Z,45.03
2023-01-29T05:26:02.742Z,45.53
2023-01-29T05:28:29.399Z,49.80
2023-01-29T05:30:56.938Z,48.00
2023-01-29T05:33:28.617Z,48.55
2023-01-29T05:35:56.181Z,46.28
2023-01-29T05:38:23.432Z,49.47
2023-01-29T05:40:50.017Z,51.65
2023-01-29T05:43:25.967Z,47.70
2023-01-29T05:46:00.521Z,46.10
2023-01-29T05:48:29.068Z,49.30
2023-01-29T05:51:00.761Z,49.58
2023-01-29T05:53:28.966Z,44.95
2023-01-29T05:55:57.269Z,47.45
2023-01-29T05:58:23.888Z,47.83
2023-01-29T06:00:50.528Z,48.17
2023-01-29T06:03:17.188Z,47.88
2023-01-29T06:05:43.814Z,49.28
2023-01-29T06:08:10.380Z,47.60
2023-01-29T06:10:36.935Z,49.38
2023-01-29T06:13:03.711Z,48.97
2023-01-29T06:15:30.626Z,51.10
2023-01-29T06:17:57.621Z,49.95
2023-01-29T06:20:24.903Z,53.75
2023-01-29T06:22:51.508Z,46.47
2023-01-29T06:25:18.087Z,52.75
2023-01-29T06:27:44.824Z,55.17
2023-01-29T06:30:11.982Z,54.25
2023-01-29T06:32:38.662Z,56.95
2023-01-29T06:35:05.762Z,55.45
2023-01-29T06:37:32.448Z,54.40
2023-01-29T06:39:59.078Z,61.60
2023-01-29T06:42:28.010Z,52.50
2023-01-29T06:44:57.944Z,52.88
2023-01-29T06:47:24.855Z,57.47
2023-01-29T06:49:52.164Z,51.42
2023-01-29T06:52:18.809Z,51.25
2023-01-29T06:54:45.417Z,51.92
2023-01-29T06:57:11.973Z,55.75
2023-01-29T06:59:38.561Z,47.95
2023-01-29T07:02:05.154Z,57.58
2023-01-29T07:04:31.841Z,55.00
2023-01-29T07:07:00.019Z,53.22
2023-01-29T07:09:26.688Z,60.28
2023-01-29T07:11:53.288Z,50.13
2023-01-29T07:14:19.912Z,54.70
2023-01-29T07:16:46.463Z,54.30
2023-01-29T07:19:13.526Z,53.67
2023-01-29T07:21:40.109Z,51.42
2023-01-29T07:24:06.962Z,60.22
2023-01-29T07:26:33.525Z,59.00
2023-01-29T07:29:00.101Z,52.83
2023-01-29T07:31:26.749Z,53.80
2023-01-29T07:33:53.460Z,55.15
2023-01-29T07:36:20.079Z,55.65
2023-01-29T07:38:50.500Z,47.88
2023-01-29T07:41:17.133Z,54.80
2023-01-29T07:43:43.723Z,53.35
2023-01-29T07:46:10.482Z,51.92
2023-01-29T07:48:37.273Z,59.45
2023-01-29T07:51:05.628Z,57.20
2023-01-29T07:53:32.786Z,57.42
2023-01-29T07:55:59.387Z,66.40
2023-01-29T07:58:25.995Z,55.03
2023-01-29T08:00:52.662Z,63.13
2023-01-29T08:03:22.554Z,56.03
2023-01-29T08:05:49.266Z,60.83
2023-01-29T08:08:16.020Z,60.95
2023-01-29T08:10:42.786Z,62.83
2023-01-29T08:13:09.509Z,54.42
2023-01-29T08:15:38.748Z,58.05
2023-01-29T08:18:06.049Z,58.50
2023-01-29T08:20:32.730Z,56.35
2023-01-29T08:23:04.603Z,57.92
2023-01-29T08:25:31.498Z,55.90
2023-01-29T08:27:58.630Z,51.55
2023-01-29T08:30:30.824Z,62.15
2023-01-29T08:32:57.476Z,57.03
2023-01-29T08:35:24.675Z,56.85
2023-01-29T08:37:59.781Z,56.53
2023-01-29T08:40:27.973Z,56.03
2023-01-29T08:43:02.201Z,60.20
2023-01-29T08:45:30.308Z,60.03
2023-01-29T08:47:57.079Z,52.42
2023-01-29T08:50:23.690Z,56.45
2023-01-29T08:52:50.362Z,56.97
2023-01-29T08:55:17.466Z,54.67
2023-01-29T08:57:44.291Z,56.63
2023-01-29T09:00:11.613Z,49.63
2023-01-29T09:02:38.229Z,52.78
2023-01-29T09:05:05.567Z,56.45
2023-01-29T09:07:32.945Z,54.60
2023-01-29T09:09:59.632Z,54.75
2023-01-29T09:12:26.302Z,52.17
2023-01-29T09:14:53.079Z,50.42
2023-01-29T09:17:19.774Z,51.00
2023-01-29T09:19:46.343Z,51.17
2023-01-29T09:22:13.047Z,53.13
2023-01-29T09:24:39.814Z,56.33
2023-01-29T09:27:06.457Z,52.50
2023-01-29T09:29:35.688Z,62.33
2023-01-29T09:32:03.842Z,54.70
2023-01-29T09:34:30.504Z,55.85
2023-01-29T09:36:57.209Z,50.50
2023-01-29T09:39:23.788Z,54.97
2023-01-29T09:42:10.592Z,52.55
2023-01-29T09:44:53.060Z,51.75
2023-01-29T09:47:20.169Z,55.00
2023-01-29T09:49:53.763Z,49.05
2023-01-29T09:52:23.461Z,54.78
2023-01-29T09:55:11.957Z,46.50
2023-01-29T09:57:46.926Z,53.47
2023-01-29T10:00:20.747Z,47.15
2023-01-29T10:03:21.371Z,48.15
2023-01-29T10:05:54.657Z,49.58
2023-01-29T10:08:27.489Z,49.45
2023-01-29T10:11:18.637Z,50.22
2023-01-29T10:13:55.593Z,49.28
2023-01-29T10:16:40.348Z,54.75
2023-01-29T10:19:40.756Z,49.53
2023-01-29T10:22:24.227Z,49.05
2023-01-29T10:25:05.507Z,48.55
2023-01-29T10:27:34.664Z,51.45
2023-01-29T10:30:04.495Z,46.10
2023-01-29T10:32:31.266Z,48.53
2023-01-29T10:35:20.943Z,47.97
2023-01-29T10:37:47.697Z,44.13
2023-01-29T10:40:23.341Z,48.05
2023-01-29T10:43:00.652Z,47.25
2023-01-29T10:45:39.089Z,48.58
2023-01-29T10:48:28.449Z,45.25
2023-01-29T10:51:15.802Z,46.38
2023-01-29T10:53:53.548Z,51.47
2023-01-29T10:56:51.006Z,51.20
2023-01-29T10:59:33.828Z,49.45
2023-01-29T11:02:03.296Z,48.60
2023-01-29T11:04:31.921Z,50.40
2023-01-29T11:06:59.679Z,44.50
2023-01-29T11:09:41.426Z,49.80
2023-01-29T11:12:16.861Z,47.97
2023-01-29T11:14:54.367Z,48.10
2023-01-29T11:17:23.472Z,47.03
2023-01-29T11:19:51.775Z,45.20
2023-01-29T11:22:21.039Z,45.60
2023-01-29T11:25:08.311Z,45.63
2023-01-29T11:27:49.851Z,43.03
2023-01-29T11:30:22.178Z,40.90
2023-01-29T11:33:00.864Z,44.92
2023-01-29T11:35:27.905Z,42.45
2023-01-29T11:38:07.906Z,42.72
2023-01-29T11:40:41.888Z,39.55
2023-01-29T11:43:13.434Z,45.17
2023-01-29T11:45:40.492Z,40.70
2023-01-29T11:48:16.888Z,42.05
2023-01-29T11:50:43.843Z,43.13
2023-01-29T11:53:43.737Z,44.95
2023-01-29T11:56:29.844Z,38.40
2023-01-29T11:58:57.685Z,44.88
2023-01-29T12:01:33.783Z,47.65
2023-01-29T12:04:01.241Z,41.00
2023-01-29T12:06:48.515Z,43.43
2023-01-29T12:09:24.120Z,37.57
2023-01-29T12:11:51.893Z,38.85
2023-01-29T12:14:36.049Z,37.97
2023-01-29T12:17:17.601Z,41.03
2023-01-29T12:19:55.457Z,38.10
2023-01-29T12:22:46.125Z,39.72
2023-01-29T12:25:23.401Z,39.22
2023-01-29T12:27:58.018Z,38.92
2023-01-29T12:30:31.997Z,39.80
2023-01-29T12:33:09.464Z,41.08
2023-01-29T12:35:38.851Z,39.67
2023-01-29T12:38:22.296Z,38.00
2023-01-29T12:40:53.413Z,46.22
2023-01-29T12:43:27.886Z,38.00
2023-01-29T12:45:55.552Z,38.97
2023-01-29T12:48:26.706Z,41.00
2023-01-29T12:50:54.164Z,40.95
2023-01-29T12:53:27.992Z,44.07
2023-01-29T12:56:06.051Z,38.60
2023-01-29T12:58:36.770Z,37.25
2023-01-29T13:01:27.298Z,37.53
2023-01-29T13:03:59.920Z,45.10
2023-01-29T13:06:30.846Z,42.42
2023-01-29T13:09:07.162Z,44.20
2023-01-29T13:11:51.787Z,39.95
2023-01-29T13:14:36.421Z,38.97
2023-01-29T13:17:28.246Z,41.22
2023-01-29T13:19:58.333Z,40.42
2023-01-29T13:22:27.263Z,42.38
2023-01-29T13:25:03.975Z,37.40
2023-01-29T13:27:34.360Z,39.42
2023-01-29T13:30:01.558Z,44.40
2023-01-29T13:32:29.964Z,40.28
2023-01-29T13:37:35.484Z,42.85
2023-01-29T13:40:04.672Z,38.13
2023-01-29T13:42:38.920Z,34.22
2023-01-29T13:45:07.136Z,40.22
2023-01-29T13:47:37.579Z,43.20
2023-01-29T13:50:11.140Z,40.00
2023-01-29T13:52:45.053Z,40.72
2023-01-29T13:55:14.903Z,41.83
2023-01-29T13:57:44.575Z,41.38
2023-01-29T14:00:31.102Z,37.30
2023-01-29T14:02:57.603Z,41.92
2023-01-29T14:05:30.345Z,41.95
2023-01-29T14:08:01.067Z,39.17
2023-01-29T14:10:32.765Z,42.10
2023-01-29T14:13:11.491Z,41.63
2023-01-29T14:15:41.955Z,40.17
2023-01-29T14:18:08.581Z,38.83
2023-01-29T14:20:58.258Z,36.25
2023-01-29T14:23:41.606Z,39.22
2023-01-29T14:26:38.920Z,37.05
2023-01-29T14:29:25.534Z,45.83
2023-01-29T14:31:59.600Z,43.00
2023-01-29T14:34:41.731Z,45.83
2023-01-29T14:37:14.455Z,45.88
2023-01-29T14:39:50.656Z,41.83
2023-01-29T14:42:22.591Z,41.75
2023-01-29T14:45:00.574Z,43.85
2023-01-29T14:47:27.081Z,48.10
2023-01-29T14:49:55.536Z,44.92
2023-01-29T14:54:50.849Z,43.88
2023-01-29T14:57:18.169Z,45.10
2023-01-29T14:59:57.120Z,47.08
2023-01-29T15:02:37.154Z,42.85
2023-01-29T15:05:08.418Z,50.13
2023-01-29T15:07:39.927Z,50.25
2023-01-29T15:10:24.883Z,46.63
2023-01-29T15:13:03.651Z,43.00
2023-01-29T15:15:48.948Z,45.55
2023-01-29T15:18:41.378Z,44.75
2023-01-29T15:21:16.229Z,46.67
2023-01-29T15:23:44.321Z,48.53
2023-01-29T15:26:22.151Z,54.78
2023-01-29T15:29:03.406Z,51.10
2023-01-29T15:31:31.374Z,50.83
2023-01-29T15:34:00.252Z,50.45
2023-01-29T15:36:30.939Z,53.55
2023-01-29T15:39:11.119Z,51.53
2023-01-29T15:41:38.126Z,57.13
2023-01-29T15:44:12.865Z,58.00
2023-01-29T15:46:40.983Z,47.42
2023-01-29T15:49:09.569Z,54.47
2023-01-29T15:51:37.926Z,49.80
2023-01-29T15:56:35.129Z,51.78
2023-01-29T15:59:09.348Z,53.05
2023-01-29T16:01:36.526Z,46.30
2023-01-29T16:04:03.863Z,60.63
2023-01-29T16:06:35.850Z,47.63
2023-01-29T16:09:03.712Z,53.22
2023-01-29T16:11:30.532Z,54.30
2023-01-29T16:13:57.207Z,43.88
2023-01-29T16:16:27.889Z,46.75
2023-01-29T16:19:00.370Z,51.03
2023-01-29T16:21:33.086Z,59.72
2023-01-29T16:24:02.990Z,58.70
2023-01-29T16:26:33.315Z,53.80
2023-01-29T16:29:23.915Z,55.70
2023-01-29T16:31:52.491Z,57.75
2023-01-29T16:34:43.602Z,50.53
2023-01-29T16:37:26.158Z,52.45
2023-01-29T16:39:52.978Z,52.17
2023-01-29T16:42:22.991Z,54.30
2023-01-29T16:44:52.696Z,58.47
2023-01-29T16:47:39.249Z,54.22
2023-01-29T16:50:27.661Z,56.70
2023-01-29T16:53:01.621Z,50.90
2023-01-29T16:55:35.673Z,54.65
2023-01-29T16:58:16.580Z,55.30
2023-01-29T17:00:45.779Z,54.15
2023-01-29T17:03:13.256Z,50.47
2023-01-29T17:05:39.852Z,50.03
2023-01-29T17:08:07.533Z,46.15
2023-01-29T17:10:34.687Z,47.08
2023-01-29T17:13:05.655Z,55.65
2023-01-29T17:15:34.162Z,51.00
2023-01-29T17:18:00.828Z,48.65
2023-01-29T17:20:27.905Z,49.00
2023-01-29T17:22:54.606Z,58.53
2023-01-29T17:25:21.999Z,49.42
2023-01-29T17:27:51.812Z,57.38
2023-01-29T17:30:21.322Z,51.70
2023-01-29T17:32:48.039Z,50.45
2023-01-29T17:35:16.356Z,62.78
2023-01-29T17:37:44.327Z,61.33
2023-01-29T17:40:57.598Z,61.38
2023-01-29T17:43:24.193Z,57.20
2023-01-29T17:45:50.914Z,53.03
2023-01-29T17:48:25.717Z,54.50
2023-01-29T17:50:54.427Z,57.85
2023-01-29T17:53:23.624Z,52.92
2023-01-29T17:55:51.704Z,56.92
2023-01-29T17:58:20.936Z,63.30
2023-01-29T18:00:48.312Z,58.85
2023-01-29T18:03:15.600Z,59.03
2023-01-29T18:05:43.904Z,62.78
2023-01-29T18:08:17.712Z,64.90
2023-01-29T18:10:45.245Z,65.22
2023-01-29T18:13:12.467Z,67.10
2023-01-29T18:15:39.473Z,67.18
2023-01-29T18:18:06.601Z,66.25
2023-01-29T18:20:38.494Z,65.95
2023-01-29T18:23:06.610Z,70.05
2023-01-29T18:25:34.248Z,66.68
2023-01-29T18:28:01.257Z,76.63
2023-01-29T18:30:28.295Z,68.00
2023-01-29T18:32:54.917Z,69.85
2023-01-29T18:35:21.912Z,74.07
2023-01-29T18:37:48.561Z,70.20
2023-01-29T18:40:17.320Z,78.13
2023-01-29T18:42:45.183Z,76.18
2023-01-29T18:45:12.706Z,69.32
2023-01-29T18:47:39.839Z,71.97
2023-01-29T18:50:06.932Z,75.20
2023-01-29T18:52:34.280Z,80.45
2023-01-29T18:55:03.706Z,72.15
2023-01-29T18:58:26.819Z,80.13
2023-01-29T19:00:17.409Z,73.43
2023-01-29T19:02:45.446Z,74.15
2023-01-29T19:05:12.125Z,76.47
2023-01-29T19:07:38.697Z,71.82
2023-01-29T19:10:06.870Z,74.90
2023-01-29T19:12:34.358Z,86.32
2023-01-29T19:15:01.139Z,72.00
2023-01-29T19:17:27.840Z,73.63
2023-01-29T19:19:56.518Z,67.97
2023-01-29T19:22:23.099Z,65.22
2023-01-29T19:24:49.687Z,67.53
2023-01-29T19:27:16.273Z,64.47
2023-01-29T19:29:42.888Z,68.60
2023-01-29T19:32:10.015Z,68.07
2023-01-29T19:34:36.840Z,73.05
2023-01-29T19:37:03.837Z,65.28
2023-01-29T19:39:33.720Z,76.00
2023-01-29T19:42:01.453Z,69.55
2023-01-29T19:44:28.081Z,67.95
2023-01-29T19:46:54.648Z,72.80
2023-01-29T19:49:21.289Z,73.82
2023-01-29T19:51:47.984Z,66.68
2023-01-29T19:54:14.872Z,73.25
2023-01-29T19:56:41.404Z,68.65
2023-01-29T19:59:07.972Z,67.30
2023-01-29T20:01:34.742Z,65.53
2023-01-29T20:04:01.384Z,68.20
2023-01-29T20:06:31.037Z,66.13
2023-01-29T20:08:57.955Z,65.07
2023-01-29T20:11:25.255Z,65.78
2023-01-29T20:13:52.556Z,65.20
2023-01-29T20:16:19.556Z,62.50
2023-01-29T20:18:46.340Z,63.05
2023-01-29T20:21:15.569Z,61.70
2023-01-29T20:23:44.251Z,50.80
2023-01-29T20:26:14.404Z,60.55
2023-01-29T20:28:41.524Z,61.10
2023-01-29T20:31:09.336Z,59.33
2023-01-29T20:33:39.063Z,54.60
2023-01-29T20:36:08.027Z,55.42
2023-01-29T20:38:34.813Z,49.58
2023-01-29T20:41:21.848Z,59.05
2023-01-29T20:43:50.465Z,58.60
2023-01-29T20:46:17.995Z,60.65
2023-01-29T20:48:44.537Z,61.77
2023-01-29T20:51:15.343Z,61.13
2023-01-29T20:53:45.901Z,59.17
2023-01-29T20:56:13.783Z,57.47
2023-01-29T20:58:43.563Z,65.85
2023-01-29T21:01:12.087Z,60.03
2023-01-29T21:03:39.798Z,64.93
2023-01-29T21:06:08.517Z,60.33
2023-01-29T21:08:36.047Z,61.30
2023-01-29T21:11:03.795Z,65.78
2023-01-29T21:13:30.514Z,60.30
2023-01-29T21:15:57.153Z,56.63
2023-01-29T21:18:25.740Z,56.78
2023-01-29T21:23:19.347Z,58.55
2023-01-29T21:25:46.019Z,59.60
2023-01-29T21:28:12.938Z,60.83
2023-01-29T21:30:39.665Z,59.33
2023-01-29T21:33:06.488Z,57.05
2023-01-29T21:35:33.345Z,65.20
2023-01-29T21:37:59.893Z,62.38
2023-01-29T21:40:26.548Z,59.50
2023-01-29T21:43:11.471Z,68.68
2023-01-29T21:45:38.633Z,62.63
2023-01-29T21:48:05.519Z,58.95
2023-01-29T21:50:32.149Z,58.75
2023-01-29T21:52:58.749Z,57.65
2023-01-29T21:55:25.353Z,54.38
2023-01-29T21:57:52.122Z,60.92
2023-01-29T22:00:19.328Z,55.78
2023-01-29T22:02:46.349Z,62.63
2023-01-29T22:05:19.273Z,60.55
2023-01-29T22:07:47.436Z,60.50
2023-01-29T22:10:14.665Z,65.78
2023-01-29T22:12:41.801Z,54.25
2023-01-29T22:15:09.376Z,59.38
2023-01-29T22:17:36.052Z,57.90
2023-01-29T22:20:02.679Z,56.40
2023-01-29T22:22:29.253Z,54.40
2023-01-29T22:24:57.692Z,51.50
2023-01-29T22:29:50.860Z,61.95
2023-01-29T22:32:17.477Z,59.80
2023-01-29T22:34:44.043Z,57.88
2023-01-29T22:37:10.599Z,65.55
2023-01-29T22:39:37.216Z,61.47
2023-01-29T22:42:03.881Z,64.97
2023-01-29T22:44:30.640Z,60.72
2023-01-29T22:46:57.248Z,55.75
2023-01-29T22:49:25.169Z,53.90
2023-01-29T22:52:09.997Z,57.55
2023-01-29T22:54:41.522Z,54.70
2023-01-29T22:57:13.164Z,58.40
2023-01-29T22:59:40.134Z,58.83
2023-01-29T23:02:07.854Z,63.05
2023-01-29T23:04:34.742Z,63.28
2023-01-29T23:07:01.403Z,56.08
2023-01-29T23:09:28.033Z,58.35
2023-01-29T23:11:54.775Z,60.45
2023-01-29T23:14:21.488Z,63.72
2023-01-29T23:16:48.084Z,60.85
2023-01-29T23:19:14.739Z,56.58
2023-01-29T23:21:41.323Z,56.38
2023-01-29T23:24:08.784Z,55.55
2023-01-29T23:26:54.108Z,62.60
2023-01-29T23:29:20.674Z,59.13
2023-01-29T23:31:47.551Z,57.05
2023-01-29T23:34:15.183Z,58.47
2023-01-29T23:36:41.794Z,60.40
2023-01-29T23:39:08.489Z,62.22
2023-01-29T23:41:35.751Z,57.67
2023-01-29T23:44:02.288Z,67.18
2023-01-29T23:46:28.892Z,61.17
2023-01-29T23:48:55.521Z,57.42
2023-01-29T23:51:22.180Z,61.10
2023-01-29T23:53:48.786Z,60.00
2023-01-29T23:56:15.394Z,58.17
2023-01-29T23:58:42.077Z,58.90
